createdAt,value
2017-12-22T00:00:50.904Z,28.93
2017-12-22T00:03:16.882Z,27.20
2017-12-22T00:05:43.658Z,28.00
2017-12-22T00:08:09.605Z,26.53
2017-12-22T00:10:35.648Z,23.37
2017-12-22T00:13:01.687Z,23.87
2017-12-22T00:15:27.637Z,27.20
2017-12-22T00:17:53.737Z,28.87
2017-12-22T00:20:19.708Z,24.20
2017-12-22T00:22:45.684Z,26.53
2017-12-22T00:25:12.396Z,25.97
2017-12-22T00:27:38.357Z,24.30
2017-12-22T00:30:05.442Z,28.20
2017-12-22T00:32:32.181Z,28.23
2017-12-22T00:34:58.137Z,28.10
2017-12-22T00:37:24.085Z,29.07
2017-12-22T00:39:50.061Z,26.83
2017-12-22T00:42:16.012Z,27.93
2017-12-22T00:44:41.988Z,25.87
2017-12-22T00:47:07.929Z,23.97
2017-12-22T00:49:33.864Z,30.70
2017-12-22T00:51:59.872Z,30.70
2017-12-22T00:54:26.557Z,31.70
2017-12-22T00:56:52.529Z,27.77
2017-12-22T00:59:18.509Z,32.80
2017-12-22T01:01:45.262Z,32.60
2017-12-22T01:04:11.989Z,27.40
2017-12-22T01:06:37.941Z,28.80
2017-12-22T01:09:04.658Z,29.70
2017-12-22T01:11:30.682Z,26.57
2017-12-22T01:13:56.629Z,34.67
2017-12-22T01:16:28.823Z,33.70
2017-12-22T01:19:00.869Z,28.50
2017-12-22T01:21:26.857Z,29.90
2017-12-22T01:23:53.585Z,33.03
2017-12-22T01:26:19.529Z,33.10
2017-12-22T01:28:45.546Z,33.87
2017-12-22T01:31:11.512Z,38.87
2017-12-22T01:33:37.456Z,32.57
2017-12-22T01:36:04.181Z,35.93
2017-12-22T01:38:30.132Z,31.90
2017-12-22T01:40:56.081Z,40.50
2017-12-22T01:43:22.801Z,33.80
2017-12-22T01:45:48.749Z,34.33
2017-12-22T01:48:14.748Z,34.70
2017-12-22T01:50:40.723Z,36.17
2017-12-22T01:53:06.664Z,33.50
2017-12-22T01:55:32.688Z,27.73
2017-12-22T01:57:58.642Z,33.20
2017-12-22T02:00:28.528Z,35.20
2017-12-22T02:02:54.489Z,32.03
2017-12-22T02:05:20.469Z,34.03
2017-12-22T02:07:46.461Z,34.87
2017-12-22T02:10:12.425Z,35.30
2017-12-22T02:12:39.128Z,38.87
2017-12-22T02:15:05.110Z,37.47
2017-12-22T02:17:31.829Z,31.67
2017-12-22T02:19:57.817Z,33.53
2017-12-22T02:22:23.757Z,33.83
2017-12-22T02:24:49.725Z,38.07
2017-12-22T02:27:15.701Z,36.87
2017-12-22T02:29:42.386Z,30.50
2017-12-22T02:32:08.320Z,38.30
2017-12-22T02:34:34.289Z,31.13
2017-12-22T02:37:00.269Z,39.40
2017-12-22T02:39:26.948Z,34.00
2017-12-22T02:41:52.918Z,38.53
2017-12-22T02:44:18.860Z,34.23
2017-12-22T02:46:44.859Z,31.00
2017-12-22T02:49:10.799Z,28.50
2017-12-22T02:51:36.741Z,28.63
2017-12-22T02:54:02.728Z,31.47
2017-12-22T02:56:29.427Z,29.93
2017-12-22T02:58:55.400Z,23.63
2017-12-22T03:01:21.385Z,24.43
2017-12-22T03:03:47.325Z,24.70
2017-12-22T03:06:13.304Z,27.70
2017-12-22T03:08:39.241Z,24.23
2017-12-22T03:11:05.209Z,28.27
2017-12-22T03:13:31.214Z,28.00
2017-12-22T03:15:57.161Z,27.93
2017-12-22T03:18:23.868Z,30.50
2017-12-22T03:20:49.809Z,24.10
2017-12-22T03:23:15.769Z,23.60
2017-12-22T03:25:41.745Z,25.77
2017-12-22T03:28:07.685Z,26.30
2017-12-22T03:30:33.653Z,28.20
2017-12-22T03:32:59.628Z,25.70
2017-12-22T03:35:26.350Z,25.27
2017-12-22T03:37:52.329Z,26.53
2017-12-22T03:40:19.045Z,23.13
2017-12-22T03:42:45.033Z,24.40
2017-12-22T03:45:11.016Z,23.97
2017-12-22T03:47:36.956Z,23.47
2017-12-22T03:50:02.925Z,22.47
2017-12-22T03:52:36.512Z,26.47
2017-12-22T03:55:02.470Z,22.27
2017-12-22T03:57:29.205Z,21.73
2017-12-22T03:59:55.140Z,22.67
2017-12-22T04:02:21.077Z,24.70
2017-12-22T04:04:47.042Z,23.63
2017-12-22T04:07:12.992Z,26.53
2017-12-22T04:09:38.975Z,22.10
2017-12-22T04:12:04.918Z,24.87
2017-12-22T04:14:30.873Z,21.37
2017-12-22T04:16:57.592Z,18.83
2017-12-22T04:19:23.523Z,22.80
2017-12-22T04:21:49.489Z,24.30
2017-12-22T04:24:16.184Z,21.13
2017-12-22T04:26:42.152Z,20.57
2017-12-22T04:29:08.112Z,24.73
2017-12-22T04:31:34.788Z,22.30
2017-12-22T04:34:00.779Z,24.70
2017-12-22T04:36:26.724Z,24.13
2017-12-22T04:38:52.661Z,19.70
2017-12-22T04:41:18.665Z,19.80
2017-12-22T04:43:45.356Z,22.67
2017-12-22T04:46:12.065Z,19.87
2017-12-22T04:48:38.000Z,21.80
2017-12-22T04:51:03.983Z,20.00
2017-12-22T04:53:29.936Z,18.47
2017-12-22T04:55:55.876Z,22.43
2017-12-22T04:58:21.848Z,19.67
2017-12-22T05:00:47.824Z,24.87
2017-12-22T05:03:14.547Z,24.47
2017-12-22T05:05:40.544Z,22.97
2017-12-22T05:08:06.499Z,20.53
2017-12-22T05:10:32.454Z,24.70
2017-12-22T05:12:58.440Z,21.87
2017-12-22T05:15:24.384Z,21.00
2017-12-22T05:17:50.367Z,23.33
2017-12-22T05:20:16.317Z,22.87
2017-12-22T05:22:42.253Z,23.67
2017-12-22T05:25:08.226Z,26.20
2017-12-22T05:27:34.160Z,26.17
2017-12-22T05:30:00.156Z,25.83
2017-12-22T05:32:26.125Z,23.50
2017-12-22T05:34:52.089Z,24.90
2017-12-22T05:37:18.080Z,23.47
2017-12-22T05:39:44.022Z,24.70
2017-12-22T05:42:10.760Z,21.37
2017-12-22T05:44:37.457Z,23.10
2017-12-22T05:47:03.428Z,26.67
2017-12-22T05:49:29.401Z,24.83
2017-12-22T05:51:56.109Z,24.90
2017-12-22T05:54:22.048Z,20.33
2017-12-22T05:56:48.032Z,28.60
2017-12-22T05:59:13.964Z,26.73
2017-12-22T06:01:39.969Z,25.90
2017-12-22T06:04:05.885Z,26.83
2017-12-22T06:06:31.876Z,25.37
2017-12-22T06:08:57.860Z,26.97
2017-12-22T06:11:23.798Z,25.47
2017-12-22T06:13:49.765Z,27.60
2017-12-22T06:16:16.447Z,25.57
2017-12-22T06:18:42.396Z,27.87
2017-12-22T06:21:08.359Z,26.37
2017-12-22T06:23:34.292Z,26.70
2017-12-22T06:26:00.287Z,28.93
2017-12-22T06:28:26.215Z,28.60
2017-12-22T06:30:52.153Z,29.20
2017-12-22T06:33:18.152Z,32.80
2017-12-22T06:35:44.888Z,27.27
2017-12-22T06:38:10.876Z,25.77
2017-12-22T06:40:36.816Z,22.13
2017-12-22T06:43:02.760Z,28.03
2017-12-22T06:45:28.748Z,25.90
2017-12-22T06:47:55.440Z,24.90
2017-12-22T06:50:21.412Z,30.87
2017-12-22T06:52:47.344Z,22.60
2017-12-22T06:55:13.307Z,24.77
2017-12-22T06:57:39.285Z,23.90
2017-12-22T07:00:05.220Z,21.83
2017-12-22T07:02:31.182Z,23.60
2017-12-22T07:04:57.188Z,28.00
2017-12-22T07:07:23.120Z,22.83
2017-12-22T07:09:49.057Z,21.50
2017-12-22T07:12:15.029Z,25.63
2017-12-22T07:14:41.084Z,25.90
2017-12-22T07:17:07.020Z,24.37
2017-12-22T07:19:33.964Z,21.97
2017-12-22T07:21:59.916Z,24.17
2017-12-22T07:24:25.864Z,21.70
2017-12-22T07:26:52.572Z,29.57
2017-12-22T07:29:18.557Z,24.20
2017-12-22T07:31:45.268Z,23.40
2017-12-22T07:34:11.216Z,24.53
2017-12-22T07:36:37.271Z,23.03
2017-12-22T07:39:03.252Z,20.40
2017-12-22T07:41:29.200Z,20.87
2017-12-22T07:43:55.172Z,18.37
2017-12-22T07:46:21.108Z,25.57
2017-12-22T07:48:47.076Z,25.50
2017-12-22T07:51:13.013Z,26.10
2017-12-22T07:53:38.984Z,23.93
2017-12-22T07:56:04.944Z,21.10
2017-12-22T07:58:30.908Z,23.73
2017-12-22T08:00:57.612Z,23.30
2017-12-22T08:03:23.556Z,19.03
2017-12-22T08:05:49.535Z,22.00
2017-12-22T08:08:16.282Z,21.07
2017-12-22T08:10:42.960Z,21.77
2017-12-22T08:13:08.925Z,21.93
2017-12-22T08:15:34.877Z,20.97
2017-12-22T08:18:00.860Z,25.33
2017-12-22T08:20:26.800Z,24.20
2017-12-22T08:22:52.768Z,21.77
2017-12-22T08:25:18.740Z,21.57
2017-12-22T08:27:45.441Z,20.70
2017-12-22T08:30:11.381Z,25.53
2017-12-22T08:32:37.352Z,22.87
2017-12-22T08:35:03.285Z,27.80
2017-12-22T08:37:29.221Z,23.50
2017-12-22T08:39:55.220Z,24.23
2017-12-22T08:42:21.200Z,23.40
2017-12-22T08:44:47.137Z,21.57
2017-12-22T08:47:13.839Z,25.10
2017-12-22T08:49:39.776Z,23.47
2017-12-22T08:52:05.745Z,26.53
2017-12-22T08:54:31.700Z,24.00
2017-12-22T08:56:58.440Z,20.50
2017-12-22T08:59:24.380Z,19.50
2017-12-22T09:01:50.363Z,22.83
2017-12-22T09:04:16.317Z,25.50
2017-12-22T09:06:42.260Z,27.37
2017-12-22T09:09:08.237Z,22.93
2017-12-22T09:11:34.929Z,21.60
2017-12-22T09:14:00.920Z,21.67
2017-12-22T09:16:27.613Z,22.87
2017-12-22T09:18:53.595Z,22.27
2017-12-22T09:21:19.541Z,23.33
2017-12-22T09:24:01.256Z,23.83
2017-12-22T09:26:27.948Z,21.60
2017-12-22T09:28:53.885Z,22.40
2017-12-22T09:31:19.852Z,26.30
2017-12-22T09:33:45.811Z,24.57
2017-12-22T09:36:12.536Z,25.80
2017-12-22T09:38:38.472Z,24.60
2017-12-22T09:41:04.448Z,25.60
2017-12-22T09:43:31.176Z,25.33
2017-12-22T09:45:57.900Z,24.67
2017-12-22T09:48:23.906Z,21.27
2017-12-22T09:50:49.934Z,24.93
2017-12-22T09:53:15.915Z,27.60
2017-12-22T09:55:41.845Z,27.00
2017-12-22T09:58:07.824Z,24.07
2017-12-22T10:00:34.540Z,23.63
2017-12-22T10:03:00.504Z,26.77
2017-12-22T10:05:27.204Z,26.03
2017-12-22T10:07:53.220Z,25.10
2017-12-22T10:10:19.160Z,28.77
2017-12-22T10:12:45.141Z,24.80
2017-12-22T10:15:11.144Z,27.17
2017-12-22T10:17:37.083Z,26.90
2017-12-22T10:20:03.016Z,28.90
2017-12-22T10:22:29.022Z,26.67
2017-12-22T10:24:55.741Z,28.00
2017-12-22T10:27:21.709Z,28.33
2017-12-22T10:29:48.392Z,30.63
2017-12-22T10:32:14.336Z,29.87
2017-12-22T10:34:40.324Z,28.90
2017-12-22T10:37:06.281Z,30.50
2017-12-22T10:39:32.237Z,29.03
2017-12-22T10:41:58.221Z,29.90
2017-12-22T10:44:24.981Z,31.70
2017-12-22T10:46:51.745Z,31.97
2017-12-22T10:49:18.437Z,30.23
2017-12-22T10:51:44.378Z,34.33
2017-12-22T10:54:10.343Z,28.60
2017-12-22T10:56:36.288Z,31.87
2017-12-22T10:59:02.284Z,29.23
2017-12-22T11:01:28.290Z,31.90
2017-12-22T11:03:54.231Z,31.73
2017-12-22T11:06:20.166Z,30.53
2017-12-22T11:08:46.170Z,32.73
2017-12-22T11:11:12.892Z,28.57
2017-12-22T11:13:38.833Z,30.27
2017-12-22T11:16:04.792Z,31.63
2017-12-22T11:18:30.768Z,34.03
2017-12-22T11:20:56.744Z,32.47
2017-12-22T11:23:24.168Z,30.93
2017-12-22T11:25:50.141Z,30.57
2017-12-22T11:28:16.112Z,30.70
2017-12-22T11:30:42.873Z,30.97
2017-12-22T11:33:09.625Z,30.23
2017-12-22T11:35:36.356Z,36.17
2017-12-22T11:38:02.319Z,35.03
2017-12-22T11:40:29.050Z,31.17
2017-12-22T11:42:55.788Z,32.63
2017-12-22T11:45:21.736Z,33.07
2017-12-22T11:47:47.712Z,37.27
2017-12-22T11:50:13.746Z,37.03
2017-12-22T11:52:39.712Z,29.83
2017-12-22T11:55:05.688Z,32.73
2017-12-22T11:57:31.736Z,29.97
2017-12-22T11:59:58.427Z,30.50
2017-12-22T12:02:24.362Z,29.20
2017-12-22T12:04:50.336Z,36.03
2017-12-22T12:07:16.323Z,33.70
2017-12-22T12:09:42.292Z,29.33
2017-12-22T12:12:08.229Z,31.23
2017-12-22T12:14:34.210Z,26.80
2017-12-22T12:17:00.932Z,29.60
2017-12-22T12:19:26.900Z,32.47
2017-12-22T12:21:53.585Z,27.57
2017-12-22T12:24:19.556Z,32.17
2017-12-22T12:26:45.512Z,32.27
2017-12-22T12:29:12.232Z,26.07
2017-12-22T12:31:38.912Z,28.17
2017-12-22T12:34:05.596Z,35.90
2017-12-22T12:36:31.581Z,26.63
2017-12-22T12:38:57.515Z,32.93
2017-12-22T12:41:23.473Z,30.43
2017-12-22T12:43:49.460Z,32.63
2017-12-22T12:46:15.448Z,27.27
2017-12-22T12:48:41.428Z,31.40
2017-12-22T12:51:07.375Z,27.93
2017-12-22T12:53:33.336Z,30.53
2017-12-22T12:55:59.321Z,26.87
2017-12-22T12:58:25.296Z,26.53
2017-12-22T13:00:51.236Z,25.20
2017-12-22T13:03:17.204Z,26.67
2017-12-22T13:05:43.884Z,29.00
2017-12-22T13:08:09.856Z,27.00
2017-12-22T13:10:36.580Z,27.17
2017-12-22T13:13:02.532Z,26.53
2017-12-22T13:15:28.538Z,27.30
2017-12-22T13:17:54.531Z,30.60
2017-12-22T13:20:20.526Z,24.67
2017-12-22T13:22:46.493Z,23.70
2017-12-22T13:25:12.480Z,26.37
2017-12-22T13:27:38.452Z,28.90
2017-12-22T13:30:04.431Z,28.73
2017-12-22T13:32:31.124Z,23.80
2017-12-22T13:34:57.065Z,24.97
2017-12-22T13:37:23.039Z,28.57
2017-12-22T13:39:48.972Z,28.53
2017-12-22T13:42:14.936Z,26.80
2017-12-22T13:44:41.616Z,26.10
2017-12-22T13:47:07.616Z,26.40
2017-12-22T13:49:33.591Z,22.60
2017-12-22T13:51:59.660Z,31.13
2017-12-22T13:54:25.616Z,25.43
2017-12-22T13:56:51.552Z,28.97
2017-12-22T13:59:25.120Z,29.60
2017-12-22T14:01:51.062Z,30.50
2017-12-22T14:04:17.017Z,29.70
2017-12-22T14:06:42.991Z,27.33
2017-12-22T14:09:09.709Z,29.07
2017-12-22T14:11:35.668Z,23.37
2017-12-22T14:14:02.403Z,20.00
2017-12-22T14:16:28.391Z,20.43
2017-12-22T14:18:54.341Z,21.50
2017-12-22T14:21:20.309Z,20.37
2017-12-22T14:23:46.273Z,24.17
2017-12-22T14:26:13.023Z,25.43
2017-12-22T14:28:39.807Z,25.27
2017-12-22T14:31:05.767Z,27.93
2017-12-22T14:33:31.758Z,21.93
2017-12-22T14:35:58.452Z,27.13
2017-12-22T14:38:24.420Z,21.40
2017-12-22T14:40:50.405Z,24.00
2017-12-22T14:43:16.356Z,22.50
2017-12-22T14:45:43.177Z,21.90
2017-12-22T14:48:09.855Z,25.67
2017-12-22T14:50:35.829Z,17.43
2017-12-22T14:53:01.824Z,20.53
2017-12-22T14:55:27.768Z,18.80
2017-12-22T14:57:53.721Z,19.27
2017-12-22T15:00:19.704Z,20.73
2017-12-22T15:02:46.384Z,26.87
2017-12-22T15:05:12.375Z,29.00
2017-12-22T15:07:38.413Z,26.00
2017-12-22T15:10:04.386Z,27.00
2017-12-22T15:12:30.438Z,31.83
2017-12-22T15:14:56.376Z,27.37
2017-12-22T15:17:22.315Z,22.27
2017-12-22T15:19:48.292Z,23.03
2017-12-22T15:22:15.080Z,25.80
2017-12-22T15:24:41.057Z,25.83
2017-12-22T15:27:07.036Z,23.43
2017-12-22T15:29:33.761Z,26.50
2017-12-22T15:31:59.745Z,28.37
2017-12-22T15:34:25.740Z,26.30
2017-12-22T15:36:52.460Z,25.23
2017-12-22T15:39:18.440Z,22.27
2017-12-22T15:41:45.213Z,25.40
2017-12-22T15:44:11.240Z,24.10
2017-12-22T15:46:37.911Z,29.37
2017-12-22T15:49:03.929Z,23.67
2017-12-22T15:51:30.664Z,21.13
2017-12-22T15:53:57.453Z,22.20
2017-12-22T15:56:23.449Z,19.70
2017-12-22T15:58:49.550Z,20.57
2017-12-22T16:01:15.541Z,19.40
2017-12-22T16:03:42.224Z,18.93
2017-12-22T16:06:08.244Z,19.13
2017-12-22T16:08:34.185Z,18.77
2017-12-22T16:11:00.263Z,20.87
2017-12-22T16:13:26.224Z,19.70
2017-12-22T16:15:52.243Z,18.90
2017-12-22T16:18:18.223Z,17.50
2017-12-22T16:20:44.208Z,18.93
2017-12-22T16:23:10.213Z,17.93
2017-12-22T16:25:36.197Z,16.97
2017-12-22T16:28:02.203Z,23.23
2017-12-22T16:30:28.199Z,21.60
2017-12-22T16:32:54.927Z,27.90
2017-12-22T16:35:20.939Z,20.47
2017-12-22T16:37:46.958Z,20.57
2017-12-22T16:40:12.948Z,26.53
2017-12-22T16:42:39.705Z,25.30
2017-12-22T16:45:06.381Z,23.30
2017-12-22T16:47:32.407Z,20.60
2017-12-22T16:49:58.388Z,17.30
2017-12-22T16:52:24.413Z,20.47
2017-12-22T16:54:50.409Z,19.47
2017-12-22T16:57:17.208Z,24.20
2017-12-22T16:59:43.188Z,22.93
2017-12-22T17:02:09.156Z,18.10
2017-12-22T17:04:35.605Z,17.07
2017-12-22T17:07:01.644Z,16.47
2017-12-22T17:09:27.652Z,16.63
2017-12-22T17:11:54.348Z,16.97
2017-12-22T17:14:20.362Z,17.10
2017-12-22T17:16:46.352Z,15.63
2017-12-22T17:19:12.339Z,17.03
2017-12-22T17:21:38.313Z,17.00
2017-12-22T17:24:04.328Z,19.23
2017-12-22T17:26:30.369Z,19.80
2017-12-22T17:28:56.326Z,19.93
2017-12-22T17:31:22.355Z,16.97
2017-12-22T17:33:48.407Z,21.03
2017-12-22T17:36:14.419Z,19.13
2017-12-22T17:38:40.383Z,18.80
2017-12-22T17:41:06.392Z,17.27
2017-12-22T17:43:32.360Z,19.57
2017-12-22T17:45:58.326Z,21.47
2017-12-22T17:48:24.336Z,15.40
2017-12-22T17:50:51.087Z,19.53
2017-12-22T17:53:17.187Z,18.33
2017-12-22T17:55:43.188Z,16.77
2017-12-22T17:58:09.899Z,22.20
2017-12-22T18:00:35.916Z,17.40
2017-12-22T18:03:01.911Z,19.83
2017-12-22T18:05:28.705Z,20.57
2017-12-22T18:07:54.745Z,16.87
2017-12-22T18:10:20.693Z,16.23
2017-12-22T18:12:46.633Z,14.20
2017-12-22T18:15:12.609Z,18.33
2017-12-22T18:17:39.379Z,15.17
2017-12-22T18:20:05.423Z,28.47
2017-12-22T18:22:31.422Z,16.30
2017-12-22T18:24:57.415Z,17.67
2017-12-22T18:27:23.407Z,15.63
2017-12-22T18:29:50.127Z,12.83
2017-12-22T18:32:16.069Z,11.00
2017-12-22T18:34:42.095Z,19.97
2017-12-22T18:37:08.097Z,17.40
2017-12-22T18:39:34.220Z,18.97
2017-12-22T18:42:00.273Z,15.13
2017-12-22T18:44:26.220Z,11.53
2017-12-22T18:46:52.250Z,16.93
2017-12-22T18:49:18.196Z,18.23
2017-12-22T18:51:44.351Z,14.00
2017-12-22T18:54:10.408Z,16.60
2017-12-22T18:56:36.412Z,15.77
2017-12-22T18:59:02.426Z,18.20
2017-12-22T19:01:28.460Z,16.53
2017-12-22T19:03:54.485Z,25.23
2017-12-22T19:06:20.577Z,14.27
2017-12-22T19:08:46.568Z,15.60
2017-12-22T19:11:12.587Z,12.80
2017-12-22T19:13:39.357Z,16.43
2017-12-22T19:16:05.365Z,14.27
2017-12-22T19:18:31.453Z,17.20
2017-12-22T19:20:57.469Z,15.00
2017-12-22T19:23:23.404Z,20.53
2017-12-22T19:25:49.396Z,12.63
2017-12-22T19:28:15.445Z,17.73
2017-12-22T19:30:41.452Z,16.40
2017-12-22T19:33:07.443Z,13.30
2017-12-22T19:35:34.244Z,17.30
2017-12-22T19:38:00.264Z,17.10
2017-12-22T19:40:26.279Z,15.57
2017-12-22T19:42:52.269Z,13.17
2017-12-22T19:45:18.301Z,18.50
2017-12-22T19:47:44.292Z,15.23
2017-12-22T19:50:10.332Z,16.73
2017-12-22T19:52:36.365Z,15.50
2017-12-22T19:55:02.299Z,19.07
2017-12-22T19:57:28.335Z,15.73
2017-12-22T19:59:54.272Z,13.90
2017-12-22T20:02:20.273Z,15.10
2017-12-22T20:04:46.315Z,13.53
2017-12-22T20:07:13.047Z,13.77
2017-12-22T20:09:39.278Z,12.40
2017-12-22T20:12:05.275Z,11.50
2017-12-22T20:14:31.326Z,10.75
2017-12-22T20:16:57.357Z,10.60
2017-12-22T20:19:23.352Z,14.50
2017-12-22T20:21:49.367Z,13.30
2017-12-22T20:24:15.360Z,10.90
2017-12-22T20:26:41.383Z,10.70
2017-12-22T20:29:08.111Z,9.57
2017-12-22T20:31:34.159Z,10.30
2017-12-22T20:34:00.172Z,12.50
2017-12-22T20:36:26.200Z,10.03
2017-12-22T20:38:52.199Z,10.47
2017-12-22T20:41:18.224Z,16.60
2017-12-22T20:43:44.260Z,10.57
2017-12-22T20:46:18.089Z,10.60
2017-12-22T20:48:44.109Z,11.70
2017-12-22T20:51:10.883Z,9.23
2017-12-22T20:53:36.885Z,10.17
2017-12-22T20:56:02.888Z,8.77
2017-12-22T20:58:28.895Z,12.13
2017-12-22T21:00:54.887Z,10.00
2017-12-22T21:03:20.904Z,9.53
2017-12-22T21:05:46.893Z,15.10
2017-12-22T21:08:12.915Z,10.80
2017-12-22T21:10:39.647Z,8.00
2017-12-22T21:13:05.672Z,12.77
2017-12-22T21:15:32.412Z,8.87
2017-12-22T21:17:58.431Z,10.30
2017-12-22T21:20:24.451Z,14.13
2017-12-22T21:22:50.523Z,11.10
2017-12-22T21:25:16.475Z,9.67
2017-12-22T21:27:43.264Z,11.27
2017-12-22T21:30:09.976Z,10.00
2017-12-22T21:32:35.984Z,11.70
2017-12-22T21:35:02.023Z,8.27
2017-12-22T21:37:28.025Z,13.07
2017-12-22T21:39:54.804Z,11.00
2017-12-22T21:42:20.791Z,8.27
2017-12-22T21:44:46.815Z,11.80
2017-12-22T21:47:12.757Z,14.17
2017-12-22T21:49:38.757Z,8.73
2017-12-22T21:52:04.799Z,8.80
2017-12-22T21:54:32.365Z,10.50
2017-12-22T21:56:58.391Z,13.00
2017-12-22T21:59:24.381Z,10.10
2017-12-22T22:01:50.385Z,10.37
2017-12-22T22:04:16.434Z,9.03
2017-12-22T22:06:42.431Z,10.93
2017-12-22T22:09:09.193Z,11.80
2017-12-22T22:11:35.237Z,9.23
2017-12-22T22:14:01.287Z,11.10
2017-12-22T22:16:27.276Z,11.10
2017-12-22T22:18:54.041Z,6.57
2017-12-22T22:21:20.812Z,7.50
2017-12-22T22:23:46.826Z,12.53
2017-12-22T22:26:13.620Z,12.40
2017-12-22T22:28:39.615Z,11.83
2017-12-22T22:31:06.408Z,10.43
2017-12-22T22:33:32.458Z,11.27
2017-12-22T22:35:58.413Z,11.90
2017-12-22T22:38:24.403Z,8.57
2017-12-22T22:40:50.423Z,11.70
2017-12-22T22:43:17.171Z,11.87
2017-12-22T22:45:43.977Z,17.07
2017-12-22T22:48:09.982Z,10.20
2017-12-22T22:50:36.016Z,10.27
2017-12-22T22:53:02.776Z,10.50
2017-12-22T22:55:28.819Z,6.83
2017-12-22T22:57:54.819Z,6.90
2017-12-22T23:00:20.839Z,13.60
2017-12-22T23:02:46.843Z,8.23
2017-12-22T23:05:12.904Z,8.57
2017-12-22T23:07:38.914Z,8.60
2017-12-22T23:10:04.877Z,15.63
2017-12-22T23:12:30.900Z,7.70
2017-12-22T23:14:56.928Z,11.23
2017-12-22T23:17:22.924Z,9.90
2017-12-22T23:19:49.616Z,7.93
2017-12-22T23:22:15.560Z,9.63
2017-12-22T23:24:41.602Z,10.40
2017-12-22T23:27:07.633Z,6.70
2017-12-22T23:29:33.648Z,6.23
2017-12-22T23:31:59.608Z,9.30
2017-12-22T23:34:25.632Z,9.50
2017-12-22T23:36:51.574Z,6.17
2017-12-22T23:39:17.606Z,6.03
2017-12-22T23:41:43.624Z,6.03
2017-12-22T23:44:09.620Z,7.43
2017-12-22T23:46:35.623Z,7.53
2017-12-22T23:49:01.660Z,10.17
2017-12-22T23:51:27.595Z,8.67
2017-12-22T23:53:53.611Z,11.40
2017-12-22T23:56:19.544Z,7.37
2017-12-22T23:58:45.564Z,12.67
